Terminal Aerodrome Forecast
Issued by NWS

Home | Current Version | Previous Version | Text Only | Print | Product List | Glossary On
Versions: 1 2 3 4 5 6 7 8 9 10 11 12 13 14 15 16 17 18 19 20 21 22 23 24 25 26 27 28
000
FTUS42 KCAE 161428 AAA
TAFOGB
TAF AMD
KOGB 161428Z 1614/1712 06004KT 2SM BR OVC006
      TEMPO 1614/1616 1/4SM FG OVC002
     FM161700 10004KT P6SM BKN012
     FM161900 10005KT P6SM SCT025
     FM170200 10004KT 2SM BR BKN012
     FM170600 12004KT 3/4SM BR OVC004=

USA.gov is the U.S. government's official web portal to all federal, state and local government web resources and services.